Etusivu
METAR-TAF:

METAR-TAF

Lentoasemat :

Bonrikin kansainvälinen lentoasema

Tarawa, Kiribati

Leveyspiiri: 01-21N, Pituuspiiri: 172-55E, korkeus merenpinnasta: 2 m

Tämänhetkinen sää

Tämä raportti tehtiin 39 minuuttia sitten, kello 20.00 UTC
Tuuli 4 kn idästä
Lämpötila 30°C
Kosteus 79%
Ilmanpaine 1011 hPa
Näkyvyys 10 km tai enemmän
Muutamia pilviä 2000 ft:n korkeudessa

METAR: NGTA 142000Z 09004KT 9999 FEW020 30/26 Q1011

Aika: 10:39 (20:39 UTC)

Sääennuste

Tämä raportti tehtiin 3 tuntia ja 9 minuuttia sitten, kello 17.30 UTC
Ennuste voimassa 14. päivästä klo 18 UTC - 15. päivään klo 18 UTC
Tuuli 5 kn idästä/koillisesta
Näkyvyys 10 km tai enemmän
Muutamia pilviä 2000 ft:n korkeudessa

TAF: NGTA 141730Z 1418/1518 06005KT 9999 FEW020

Säähavainnot ja -ennusteet yli 4000 lentoasemalta (METAR- ja TAF-raportit).

Käytössä olevat sääasemat on merkitty karttaan keltaisilla ja punaisilla pisteillä.

Aseta hiiri pisteen päälle nähdäksesi sääaseman nimen.

Klikkaa sitten nähdäksesi säähavainnot ja -ennusteet.

Kartan vaihtaminen: klikkaa mustalla rastilla varustettuja vihreitä pisteitä, niin voit zoomata sisään; viivalla varustettua vihreää pistettä, niin voit zoomata ulos tai vihreitä nuolia, niin pääset viereisille kartoille.


METAR-TAF: